createdAt,value
2023-04-16T00:00:18.325Z,9.00
2023-04-16T00:01:13.631Z,9.10
2023-04-16T00:02:13.839Z,8.70
2023-04-16T00:03:13.253Z,9.00
2023-04-16T00:04:13.558Z,9.10
2023-04-16T00:05:13.550Z,9.60
2023-04-16T00:06:13.476Z,9.50
2023-04-16T00:07:13.432Z,9.00
2023-04-16T00:08:13.589Z,9.00
2023-04-16T00:09:13.495Z,9.30
2023-04-16T00:10:13.742Z,9.70
2023-04-16T00:11:13.872Z,9.70
2023-04-16T00:12:12.911Z,10.00
2023-04-16T00:13:12.772Z,10.10
2023-04-16T00:14:13.760Z,9.80
2023-04-16T00:15:13.804Z,9.60
2023-04-16T00:16:13.958Z,9.90
2023-04-16T00:17:13.052Z,9.50
2023-04-16T00:18:13.091Z,9.40
2023-04-16T00:19:13.344Z,9.60
2023-04-16T00:20:13.323Z,9.80
2023-04-16T00:21:13.685Z,9.60
2023-04-16T00:22:13.622Z,9.50
2023-04-16T00:23:13.549Z,9.50
2023-04-16T00:24:13.449Z,9.30
2023-04-16T00:25:13.461Z,9.70
2023-04-16T00:26:13.348Z,9.60
2023-04-16T00:27:13.325Z,9.70
2023-04-16T00:28:13.191Z,9.40
2023-04-16T00:29:13.105Z,9.10
2023-04-16T00:30:13.020Z,9.70
2023-04-16T00:31:12.993Z,9.70
2023-04-16T00:32:12.905Z,9.20
2023-04-16T00:33:12.710Z,9.60
2023-04-16T00:34:13.617Z,9.30
2023-04-16T00:35:13.713Z,9.60
2023-04-16T00:36:13.630Z,9.80
2023-04-16T00:37:13.447Z,9.70
2023-04-16T00:38:13.240Z,9.30
2023-04-16T00:39:13.073Z,9.50
2023-04-16T00:40:13.269Z,9.40
2023-04-16T00:41:13.099Z,9.20
2023-04-16T00:42:13.101Z,9.20
2023-04-16T00:43:13.183Z,9.40
2023-04-16T00:44:13.514Z,9.20
2023-04-16T00:45:13.421Z,9.40
2023-04-16T00:46:13.387Z,9.60
2023-04-16T00:47:13.407Z,9.50
2023-04-16T00:48:13.231Z,8.90
2023-04-16T00:49:13.651Z,9.50
2023-04-16T00:50:18.567Z,9.30
2023-04-16T00:51:13.606Z,9.50
2023-04-16T00:52:13.519Z,9.00
2023-04-16T00:53:13.350Z,9.40
2023-04-16T00:54:13.236Z,9.00
2023-04-16T00:55:13.310Z,9.20
2023-04-16T00:56:13.230Z,9.10
2023-04-16T00:57:13.162Z,9.20
2023-04-16T00:58:13.161Z,8.90
2023-04-16T00:59:13.383Z,9.20
2023-04-16T01:00:13.580Z,9.20
2023-04-16T01:01:13.604Z,9.20
2023-04-16T01:02:14.247Z,9.30
2023-04-16T01:03:13.439Z,9.40
2023-04-16T01:04:13.558Z,9.50
2023-04-16T01:05:13.566Z,9.20
2023-04-16T01:06:13.794Z,9.20
2023-04-16T01:07:13.680Z,9.30
2023-04-16T01:08:13.508Z,9.30
2023-04-16T01:09:13.623Z,9.50
2023-04-16T01:10:13.716Z,9.50
2023-04-16T01:11:13.588Z,9.50
2023-04-16T01:12:13.720Z,9.60
2023-04-16T01:13:13.662Z,9.30
2023-04-16T01:14:13.982Z,9.40
2023-04-16T01:15:12.965Z,9.50
2023-04-16T01:16:12.906Z,9.00
2023-04-16T01:17:12.997Z,9.00
2023-04-16T01:18:13.125Z,9.00
2023-04-16T01:19:13.138Z,9.10
2023-04-16T01:20:13.105Z,9.10
2023-04-16T01:21:13.274Z,9.10
2023-04-16T01:22:13.244Z,9.20
2023-04-16T01:23:13.347Z,9.40
2023-04-16T01:24:13.416Z,9.40
2023-04-16T01:25:13.374Z,9.40
2023-04-16T01:26:13.326Z,9.30
2023-04-16T01:27:13.200Z,9.20
2023-04-16T01:28:13.081Z,9.20
2023-04-16T01:29:12.996Z,9.30
2023-04-16T01:30:12.908Z,8.90
2023-04-16T01:31:12.938Z,9.10
2023-04-16T01:32:12.872Z,9.00
2023-04-16T01:33:13.944Z,9.10
2023-04-16T01:34:12.938Z,9.10
2023-04-16T01:35:12.846Z,9.40
2023-04-16T01:36:13.713Z,9.10
2023-04-16T01:37:13.645Z,9.20
2023-04-16T01:38:13.567Z,9.10
2023-04-16T01:39:13.792Z,9.30
2023-04-16T01:40:13.848Z,9.10
2023-04-16T01:41:13.692Z,9.10
2023-04-16T01:42:13.884Z,9.10
2023-04-16T01:43:12.932Z,9.10
2023-04-16T01:44:13.070Z,9.10
2023-04-16T01:45:13.164Z,9.00
2023-04-16T01:46:13.079Z,9.30
2023-04-16T01:47:13.012Z,9.10
2023-04-16T01:48:12.926Z,9.10
2023-04-16T01:49:12.882Z,9.70
2023-04-16T01:50:12.810Z,9.50
2023-04-16T01:51:13.652Z,9.70
2023-04-16T01:52:13.626Z,9.20
2023-04-16T01:53:13.477Z,9.00
2023-04-16T01:54:13.449Z,9.10
2023-04-16T01:55:13.656Z,8.90
2023-04-16T01:56:13.518Z,9.20
2023-04-16T01:57:13.775Z,9.40
2023-04-16T01:58:14.129Z,9.20
2023-04-16T01:59:13.296Z,9.10
2023-04-16T02:00:13.652Z,9.10
2023-04-16T02:01:13.474Z,9.30
2023-04-16T02:02:13.529Z,9.20
2023-04-16T02:03:13.672Z,9.10
2023-04-16T02:04:13.830Z,9.00
2023-04-16T02:05:13.943Z,9.30
2023-04-16T02:06:12.871Z,9.20
2023-04-16T02:07:13.689Z,9.10
2023-04-16T02:08:13.718Z,8.90
2023-04-16T02:09:13.933Z,8.90
2023-04-16T02:10:12.834Z,9.10
2023-04-16T02:11:13.895Z,9.10
2023-04-16T02:12:12.855Z,9.00
2023-04-16T02:13:13.941Z,8.90
2023-04-16T02:14:18.078Z,8.90
2023-04-16T02:15:12.920Z,9.40
2023-04-16T02:16:12.863Z,9.20
2023-04-16T02:17:13.021Z,9.20
2023-04-16T02:18:13.103Z,9.20
2023-04-16T02:19:12.923Z,9.40
2023-04-16T02:20:12.835Z,9.60
2023-04-16T02:21:13.981Z,9.50
2023-04-16T02:22:12.859Z,10.00
2023-04-16T02:23:14.041Z,9.30
2023-04-16T02:24:13.027Z,9.40
2023-04-16T02:25:13.016Z,9.70
2023-04-16T02:26:13.463Z,9.80
2023-04-16T02:27:13.942Z,9.40
2023-04-16T02:28:13.097Z,9.20
2023-04-16T02:29:13.085Z,9.20
2023-04-16T02:30:13.109Z,9.50
2023-04-16T02:31:13.136Z,9.50
2023-04-16T02:32:13.340Z,9.20
2023-04-16T02:33:13.273Z,9.20
2023-04-16T02:34:13.317Z,9.30
2023-04-16T02:35:13.388Z,9.70
2023-04-16T02:36:13.676Z,9.50
2023-04-16T02:37:13.920Z,9.70
2023-04-16T02:38:13.055Z,9.60
2023-04-16T02:39:13.010Z,9.60
2023-04-16T02:40:13.181Z,10.00
2023-04-16T02:41:13.139Z,9.30
2023-04-16T02:42:13.084Z,9.60
2023-04-16T02:43:13.389Z,9.70
2023-04-16T02:44:13.412Z,9.60
2023-04-16T02:45:13.508Z,9.70
2023-04-16T02:46:13.641Z,9.50
2023-04-16T02:47:13.578Z,10.00
2023-04-16T02:48:13.450Z,9.40
2023-04-16T02:49:13.561Z,9.30
2023-04-16T02:50:13.475Z,9.60
2023-04-16T02:51:13.570Z,9.30
2023-04-16T02:52:15.505Z,9.20
2023-04-16T02:53:13.732Z,9.00
2023-04-16T02:54:14.049Z,9.30
2023-04-16T02:55:12.921Z,9.70
2023-04-16T02:56:12.990Z,9.50
2023-04-16T02:57:13.076Z,9.80
2023-04-16T02:58:13.309Z,9.80
2023-04-16T02:59:13.497Z,9.70
2023-04-16T03:00:13.612Z,9.40
2023-04-16T03:01:13.605Z,9.60
2023-04-16T03:02:13.945Z,9.60
2023-04-16T03:03:13.053Z,9.50
2023-04-16T03:04:13.056Z,9.60
2023-04-16T03:05:13.136Z,9.40
2023-04-16T03:06:13.293Z,9.20
2023-04-16T03:07:13.471Z,9.40
2023-04-16T03:08:13.728Z,9.60
2023-04-16T03:09:13.496Z,9.30
2023-04-16T03:10:13.442Z,9.40
2023-04-16T03:11:13.899Z,9.20
2023-04-16T03:12:13.009Z,9.20
2023-04-16T03:13:12.926Z,9.10
2023-04-16T03:14:12.962Z,9.40
2023-04-16T03:15:12.917Z,9.50
2023-04-16T03:16:12.845Z,9.50
2023-04-16T03:17:12.992Z,9.70
2023-04-16T03:18:13.218Z,10.00
2023-04-16T03:19:13.095Z,9.70
2023-04-16T03:20:12.977Z,9.90
2023-04-16T03:21:12.927Z,9.60
2023-04-16T03:22:12.982Z,9.60
2023-04-16T03:23:13.145Z,9.90
2023-04-16T03:24:14.524Z,9.50
2023-04-16T03:25:13.936Z,10.00
2023-04-16T03:26:12.974Z,9.80
2023-04-16T03:27:12.858Z,9.70
2023-04-16T03:28:13.809Z,9.90
2023-04-16T03:29:13.726Z,10.00
2023-04-16T03:30:13.732Z,10.00
2023-04-16T03:31:13.927Z,9.90
2023-04-16T03:32:12.857Z,9.90
2023-04-16T03:33:13.860Z,10.00
2023-04-16T03:34:13.798Z,10.10
2023-04-16T03:35:13.711Z,10.00
2023-04-16T03:36:13.577Z,9.50
2023-04-16T03:37:13.860Z,9.80
2023-04-16T03:38:13.969Z,10.10
2023-04-16T03:39:12.964Z,10.10
2023-04-16T03:40:12.811Z,9.50
2023-04-16T03:41:13.602Z,10.10
2023-04-16T03:42:13.501Z,9.50
2023-04-16T03:43:13.589Z,9.90
2023-04-16T03:44:13.587Z,10.10
2023-04-16T03:45:13.551Z,9.60
2023-04-16T03:46:13.827Z,9.90
2023-04-16T03:47:12.845Z,9.80
2023-04-16T03:48:13.998Z,10.00
2023-04-16T03:49:12.893Z,10.10
2023-04-16T03:50:12.790Z,10.20
2023-04-16T03:51:13.927Z,10.20
2023-04-16T03:52:12.878Z,10.10
2023-04-16T03:53:12.766Z,10.20
2023-04-16T03:54:13.760Z,10.10
2023-04-16T03:55:13.619Z,9.80
2023-04-16T03:56:14.782Z,10.10
2023-04-16T03:57:13.763Z,10.00
2023-04-16T03:58:13.742Z,9.50
2023-04-16T03:59:13.806Z,9.60
2023-04-16T04:00:13.698Z,9.70
2023-04-16T04:01:13.555Z,10.00
2023-04-16T04:02:13.823Z,9.80
2023-04-16T04:03:12.986Z,10.20
2023-04-16T04:04:13.248Z,10.00
2023-04-16T04:05:13.349Z,10.30
2023-04-16T04:06:13.355Z,10.10
2023-04-16T04:07:13.364Z,10.10
2023-04-16T04:08:13.245Z,9.90
2023-04-16T04:09:13.445Z,10.00
2023-04-16T04:10:13.378Z,10.10
2023-04-16T04:11:13.355Z,10.40
2023-04-16T04:12:13.227Z,9.90
2023-04-16T04:13:13.458Z,10.00
2023-04-16T04:14:13.369Z,10.10
2023-04-16T04:15:13.415Z,10.20
2023-04-16T04:16:13.424Z,10.10
2023-04-16T04:17:13.334Z,10.50
2023-04-16T04:18:13.290Z,10.30
2023-04-16T04:19:13.132Z,10.60
2023-04-16T04:20:13.210Z,10.00
2023-04-16T04:21:13.427Z,10.50
2023-04-16T04:22:13.309Z,10.30
2023-04-16T04:23:13.203Z,10.30
2023-04-16T04:24:13.654Z,10.00
2023-04-16T04:25:13.547Z,10.20
2023-04-16T04:26:13.436Z,10.10
2023-04-16T04:27:13.451Z,10.00
2023-04-16T04:28:13.396Z,10.40
2023-04-16T04:29:13.344Z,10.40
2023-04-16T04:30:13.439Z,10.10
2023-04-16T04:31:13.396Z,10.00
2023-04-16T04:32:13.298Z,10.00
2023-04-16T04:33:13.330Z,10.10
2023-04-16T04:34:13.796Z,10.10
2023-04-16T04:35:13.964Z,9.80
2023-04-16T04:36:13.130Z,10.50
2023-04-16T04:37:13.080Z,10.30
2023-04-16T04:38:15.564Z,10.70
2023-04-16T04:39:13.120Z,10.30
2023-04-16T04:40:13.107Z,10.70
2023-04-16T04:41:13.214Z,10.60
2023-04-16T04:42:13.203Z,10.50
2023-04-16T04:43:13.103Z,10.20
2023-04-16T04:44:13.131Z,10.30
2023-04-16T04:45:13.008Z,10.40
2023-04-16T04:46:13.568Z,10.10
2023-04-16T04:47:13.422Z,10.50
2023-04-16T04:48:13.219Z,10.40
2023-04-16T04:49:13.233Z,10.40
2023-04-16T04:50:13.156Z,10.80
2023-04-16T04:51:13.230Z,10.70
2023-04-16T04:52:13.198Z,10.80
2023-04-16T04:53:13.296Z,10.60
2023-04-16T04:54:13.182Z,10.40
2023-04-16T04:55:13.024Z,10.80
2023-04-16T04:56:13.310Z,11.10
2023-04-16T04:57:13.357Z,10.90
2023-04-16T04:58:13.576Z,10.90
2023-04-16T04:59:13.705Z,10.50
2023-04-16T05:00:13.642Z,10.50
2023-04-16T05:01:13.624Z,10.80
2023-04-16T05:02:13.795Z,11.30
2023-04-16T05:03:13.830Z,10.30
2023-04-16T05:04:13.817Z,10.90
2023-04-16T05:05:13.918Z,10.70
2023-04-16T05:06:12.844Z,10.30
2023-04-16T05:07:13.828Z,10.30
2023-04-16T05:08:13.700Z,10.60
2023-04-16T05:09:13.490Z,10.40
2023-04-16T05:10:13.493Z,10.60
2023-04-16T05:11:13.400Z,10.70
2023-04-16T05:12:13.325Z,10.30
2023-04-16T05:13:13.238Z,10.60
2023-04-16T05:14:13.261Z,10.40
2023-04-16T05:15:13.152Z,10.30
2023-04-16T05:16:13.486Z,9.90
2023-04-16T05:17:13.343Z,10.10
2023-04-16T05:18:13.309Z,10.20
2023-04-16T05:19:13.234Z,10.20
2023-04-16T05:20:13.569Z,10.70
2023-04-16T05:21:14.602Z,10.40
2023-04-16T05:22:13.628Z,10.50
2023-04-16T05:23:13.940Z,10.50
2023-04-16T05:24:14.782Z,10.70
2023-04-16T05:25:12.969Z,10.50
2023-04-16T05:26:12.930Z,10.30
2023-04-16T05:27:12.923Z,10.00
2023-04-16T05:28:12.808Z,10.50
2023-04-16T05:29:13.961Z,10.50
2023-04-16T05:30:12.877Z,10.70
2023-04-16T05:31:12.767Z,10.60
2023-04-16T05:32:13.682Z,10.70
2023-04-16T05:33:13.683Z,10.70
2023-04-16T05:34:14.648Z,10.30
2023-04-16T05:35:15.312Z,10.80
2023-04-16T05:36:13.207Z,10.70
2023-04-16T05:37:13.427Z,10.60
2023-04-16T05:38:13.314Z,10.40
2023-04-16T05:39:13.194Z,10.30
2023-04-16T05:40:13.203Z,10.40
2023-04-16T05:41:13.169Z,10.50
2023-04-16T05:42:13.210Z,10.20
2023-04-16T05:43:13.351Z,10.10
2023-04-16T05:44:13.664Z,10.70
2023-04-16T05:45:13.558Z,10.70
2023-04-16T05:46:13.933Z,10.10
2023-04-16T05:47:12.841Z,10.20
2023-04-16T05:48:13.722Z,10.50
2023-04-16T05:49:13.869Z,10.30
2023-04-16T05:50:13.864Z,10.30
2023-04-16T05:51:14.015Z,10.30
2023-04-16T05:52:12.932Z,10.40
2023-04-16T05:53:13.023Z,10.40
2023-04-16T05:54:13.124Z,10.50
2023-04-16T05:55:12.981Z,10.40
2023-04-16T05:56:13.313Z,10.30
2023-04-16T05:57:13.249Z,10.30
2023-04-16T05:58:13.259Z,10.40
2023-04-16T05:59:13.497Z,10.40
2023-04-16T06:00:13.510Z,10.60
2023-04-16T06:01:13.531Z,10.50
2023-04-16T06:02:13.884Z,10.40
2023-04-16T06:03:13.036Z,10.50
2023-04-16T06:04:13.544Z,10.40
2023-04-16T06:05:13.842Z,10.40
2023-04-16T06:06:13.831Z,10.30
2023-04-16T06:07:13.793Z,10.10
2023-04-16T06:08:14.242Z,10.50
2023-04-16T06:09:13.235Z,10.60
2023-04-16T06:10:13.097Z,10.60
2023-04-16T06:11:13.140Z,10.70
2023-04-16T06:12:13.001Z,10.30
2023-04-16T06:13:13.045Z,10.50
2023-04-16T06:14:13.470Z,10.40
2023-04-16T06:15:13.394Z,10.50
2023-04-16T06:16:13.791Z,10.40
2023-04-16T06:17:13.717Z,10.60
2023-04-16T06:18:13.705Z,10.60
2023-04-16T06:19:13.692Z,10.30
2023-04-16T06:20:13.515Z,10.40
2023-04-16T06:21:13.340Z,10.40
2023-04-16T06:22:13.360Z,10.40
2023-04-16T06:23:13.237Z,10.40
2023-04-16T06:24:13.383Z,10.60
2023-04-16T06:25:14.502Z,10.60
2023-04-16T06:26:13.639Z,10.50
2023-04-16T06:27:13.694Z,10.30
2023-04-16T06:28:13.985Z,10.40
2023-04-16T06:29:12.827Z,10.40
2023-04-16T06:30:13.647Z,10.40
2023-04-16T06:31:13.734Z,10.00
2023-04-16T06:32:13.674Z,10.70
2023-04-16T06:33:13.682Z,10.70
2023-04-16T06:34:13.586Z,10.80
2023-04-16T06:35:13.524Z,10.50
2023-04-16T06:36:13.412Z,10.50
2023-04-16T06:37:13.586Z,10.50
2023-04-16T06:38:13.970Z,10.90
2023-04-16T06:39:12.875Z,10.80
2023-04-16T06:40:14.810Z,10.60
2023-04-16T06:41:13.628Z,10.70
2023-04-16T06:42:13.670Z,11.30
2023-04-16T06:43:13.944Z,11.00
2023-04-16T06:44:12.833Z,10.60
2023-04-16T06:45:13.825Z,10.70
2023-04-16T06:46:14.015Z,10.80
2023-04-16T06:47:12.870Z,10.90
2023-04-16T06:48:13.928Z,11.00
2023-04-16T06:49:12.787Z,10.90
2023-04-16T06:50:13.670Z,10.90
2023-04-16T06:51:13.857Z,10.90
2023-04-16T06:52:13.677Z,10.90
2023-04-16T06:53:13.505Z,10.80
2023-04-16T06:54:13.388Z,10.60
2023-04-16T06:55:13.911Z,11.30
2023-04-16T06:56:12.732Z,11.20
2023-04-16T06:57:18.645Z,10.60
2023-04-16T06:58:13.561Z,10.70
2023-04-16T06:59:18.504Z,10.90
2023-04-16T07:00:18.448Z,11.20
2023-04-16T07:01:13.383Z,10.90
2023-04-16T07:02:13.436Z,11.00
2023-04-16T07:03:13.809Z,11.40
2023-04-16T07:04:18.336Z,11.20
2023-04-16T07:05:18.555Z,11.10
2023-04-16T07:06:13.554Z,11.30
2023-04-16T07:07:13.933Z,10.90
2023-04-16T07:08:12.912Z,11.30
2023-04-16T07:09:13.053Z,11.10
2023-04-16T07:10:12.872Z,10.80
2023-04-16T07:11:18.938Z,10.50
2023-04-16T07:12:14.128Z,11.10
2023-04-16T07:13:13.272Z,11.70
2023-04-16T07:14:13.373Z,10.90
2023-04-16T07:15:13.424Z,11.30
2023-04-16T07:16:13.455Z,10.90
2023-04-16T07:17:19.373Z,10.80
2023-04-16T07:18:13.569Z,10.90
2023-04-16T07:19:13.548Z,11.20
2023-04-16T07:20:13.576Z,11.30
2023-04-16T07:21:13.477Z,11.30
2023-04-16T07:22:13.584Z,11.60
2023-04-16T07:23:13.606Z,11.30
2023-04-16T07:24:13.553Z,11.00
2023-04-16T07:25:13.459Z,11.30
2023-04-16T07:26:13.328Z,11.10
2023-04-16T07:27:13.262Z,11.00
2023-04-16T07:28:13.196Z,11.10
2023-04-16T07:29:13.152Z,11.00
2023-04-16T07:30:13.192Z,10.90
2023-04-16T07:31:13.302Z,11.00
2023-04-16T07:32:15.144Z,11.00
2023-04-16T07:33:13.495Z,11.20
2023-04-16T07:34:13.573Z,10.80
2023-04-16T07:35:13.675Z,10.70
2023-04-16T07:36:13.582Z,10.90
2023-04-16T07:37:13.714Z,11.30
2023-04-16T07:38:13.518Z,11.70
2023-04-16T07:39:13.325Z,11.10
2023-04-16T07:40:13.217Z,10.90
2023-04-16T07:41:13.264Z,11.40
2023-04-16T07:42:13.255Z,11.80
2023-04-16T07:43:13.171Z,11.20
2023-04-16T07:44:13.441Z,11.60
2023-04-16T07:45:13.795Z,11.20
2023-04-16T07:46:13.688Z,11.50
2023-04-16T07:47:14.152Z,11.70
2023-04-16T07:48:13.195Z,11.60
2023-04-16T07:49:13.187Z,11.90
2023-04-16T07:50:13.397Z,12.30
2023-04-16T07:51:13.627Z,12.40
2023-04-16T07:52:13.530Z,11.80
2023-04-16T07:53:30.368Z,11.50
2023-04-16T07:54:13.742Z,11.40
2023-04-16T07:55:13.596Z,11.90
2023-04-16T07:56:13.801Z,11.40
2023-04-16T07:57:13.911Z,11.50
2023-04-16T07:58:12.923Z,12.00
2023-04-16T08:00:12.763Z,12.20
2023-04-16T08:01:13.998Z,12.20
2023-04-16T08:02:13.189Z,11.60
2023-04-16T08:03:13.349Z,11.80
2023-04-16T08:04:13.784Z,12.30
2023-04-16T08:05:12.959Z,11.90
2023-04-16T08:06:12.909Z,11.60
2023-04-16T08:07:12.716Z,11.50
2023-04-16T08:08:18.636Z,11.80
2023-04-16T08:09:13.824Z,11.80
2023-04-16T08:10:13.685Z,11.80
2023-04-16T08:11:13.511Z,11.20
2023-04-16T08:12:13.366Z,11.50
2023-04-16T08:13:13.626Z,11.00
2023-04-16T08:14:13.891Z,11.70
2023-04-16T08:15:18.626Z,11.40
2023-04-16T08:16:15.799Z,11.60
2023-04-16T08:17:12.850Z,11.50
2023-04-16T08:18:13.765Z,11.90
2023-04-16T08:19:13.721Z,11.70
2023-04-16T08:20:17.654Z,11.00
2023-04-16T08:21:13.443Z,11.80
2023-04-16T08:22:13.808Z,12.00
2023-04-16T08:23:13.890Z,11.70
2023-04-16T08:24:12.922Z,11.90
2023-04-16T08:25:12.809Z,11.50
2023-04-16T08:26:13.964Z,11.20
2023-04-16T08:27:19.088Z,11.10
2023-04-16T08:28:13.435Z,11.10
2023-04-16T08:29:13.490Z,11.20
2023-04-16T08:30:13.964Z,11.60
2023-04-16T08:31:13.213Z,11.50
2023-04-16T08:32:13.655Z,11.40
2023-04-16T08:33:13.569Z,11.70
2023-04-16T08:34:13.929Z,11.80
2023-04-16T08:35:12.943Z,11.80
2023-04-16T08:36:13.004Z,11.40
2023-04-16T08:37:13.075Z,11.30
2023-04-16T08:38:13.169Z,11.40
2023-04-16T08:39:13.568Z,11.30
2023-04-16T08:40:13.660Z,11.60
2023-04-16T08:41:13.927Z,12.00
2023-04-16T08:42:12.980Z,11.70
2023-04-16T08:43:12.817Z,11.10
2023-04-16T08:44:14.469Z,11.20
2023-04-16T08:45:13.674Z,11.80
2023-04-16T08:46:13.607Z,12.30
2023-04-16T08:47:13.971Z,11.60
2023-04-16T08:48:13.021Z,12.30
2023-04-16T08:49:12.973Z,12.60
2023-04-16T08:50:12.908Z,12.60
2023-04-16T08:51:12.838Z,12.60
2023-04-16T08:52:13.848Z,12.20
2023-04-16T08:53:13.923Z,11.60
2023-04-16T08:54:13.130Z,12.00
2023-04-16T08:55:18.290Z,11.50
2023-04-16T08:56:13.461Z,11.30
2023-04-16T08:57:13.633Z,11.50
2023-04-16T08:58:13.733Z,11.80
2023-04-16T08:59:13.976Z,12.10
2023-04-16T09:00:14.162Z,11.80
2023-04-16T09:01:13.115Z,11.70
2023-04-16T09:02:13.212Z,11.90
2023-04-16T09:03:13.918Z,11.30
2023-04-16T09:04:13.451Z,11.50
2023-04-16T09:05:13.840Z,11.90
2023-04-16T09:06:13.918Z,11.80
2023-04-16T09:07:12.819Z,11.90
2023-04-16T09:08:13.896Z,11.40
2023-04-16T09:09:13.971Z,11.70
2023-04-16T09:10:13.038Z,11.70
2023-04-16T09:11:13.219Z,11.90
2023-04-16T09:12:13.476Z,12.20
2023-04-16T09:13:13.465Z,12.50
2023-04-16T09:14:13.888Z,12.60
2023-04-16T09:15:13.054Z,12.60
2023-04-16T09:16:13.172Z,11.40
2023-04-16T09:17:13.331Z,11.40
2023-04-16T09:18:13.587Z,11.50
2023-04-16T09:19:13.487Z,11.60
2023-04-16T09:20:13.726Z,11.90
2023-04-16T09:21:13.814Z,12.10
2023-04-16T09:22:14.177Z,11.90
2023-04-16T09:23:14.029Z,11.90
2023-04-16T09:24:12.967Z,11.60
2023-04-16T09:25:12.863Z,11.30
2023-04-16T09:26:13.766Z,11.40
2023-04-16T09:27:13.724Z,11.70
2023-04-16T09:28:13.676Z,11.90
2023-04-16T09:29:13.642Z,12.10
2023-04-16T09:30:13.514Z,12.20
2023-04-16T09:31:13.590Z,12.20
2023-04-16T09:32:14.140Z,11.80
2023-04-16T09:33:18.522Z,11.80
2023-04-16T09:34:13.520Z,12.30
2023-04-16T09:35:13.811Z,12.20
2023-04-16T09:36:13.676Z,12.10
2023-04-16T09:37:13.779Z,11.80
2023-04-16T09:38:13.707Z,11.70
2023-04-16T09:39:13.572Z,12.00
2023-04-16T09:40:13.457Z,11.90
2023-04-16T09:41:13.762Z,11.80
2023-04-16T09:42:13.716Z,11.50
2023-04-16T09:43:13.974Z,11.80
2023-04-16T09:44:13.210Z,11.80
2023-04-16T09:45:13.490Z,12.80
2023-04-16T09:46:13.807Z,12.30
2023-04-16T09:47:13.636Z,11.80
2023-04-16T09:48:13.899Z,12.50
2023-04-16T09:49:13.061Z,12.00
2023-04-16T09:50:13.711Z,12.00
2023-04-16T09:51:13.741Z,11.80
2023-04-16T09:52:13.791Z,12.00
2023-04-16T09:53:13.741Z,12.20
2023-04-16T09:54:13.908Z,12.00
2023-04-16T09:55:13.029Z,12.00
2023-04-16T09:56:12.992Z,12.60
2023-04-16T09:57:13.289Z,12.30
2023-04-16T09:58:13.732Z,12.40
2023-04-16T09:59:14.064Z,11.80
2023-04-16T10:00:13.552Z,11.50
2023-04-16T10:01:13.752Z,11.70
2023-04-16T10:02:15.418Z,12.40
2023-04-16T10:03:13.764Z,12.20
2023-04-16T10:04:13.794Z,12.60
2023-04-16T10:05:13.816Z,11.90
2023-04-16T10:06:13.725Z,11.90
2023-04-16T10:07:13.681Z,12.10
2023-04-16T10:08:13.739Z,11.80
2023-04-16T10:09:13.747Z,11.60
2023-04-16T10:10:14.449Z,11.70
2023-04-16T10:11:13.678Z,12.40
2023-04-16T10:12:13.594Z,13.10
2023-04-16T10:13:13.532Z,12.00
2023-04-16T10:14:13.532Z,11.90
2023-04-16T10:15:13.525Z,11.90
2023-04-16T10:16:14.008Z,12.40
2023-04-16T10:17:12.976Z,13.00
2023-04-16T10:18:13.021Z,13.40
2023-04-16T10:19:18.070Z,12.70
2023-04-16T10:20:13.490Z,12.90
2023-04-16T10:21:13.152Z,13.50
2023-04-16T10:22:13.264Z,14.00
2023-04-16T10:23:13.413Z,13.20
2023-04-16T10:24:13.772Z,13.40
2023-04-16T10:25:13.649Z,13.30
2023-04-16T10:26:14.042Z,13.40
2023-04-16T10:27:13.103Z,13.20
2023-04-16T10:28:13.382Z,12.70
2023-04-16T10:29:13.503Z,13.10
2023-04-16T10:30:13.858Z,12.90
2023-04-16T10:31:13.970Z,13.00
2023-04-16T10:32:13.285Z,13.50
2023-04-16T10:33:13.496Z,13.20
2023-04-16T10:34:13.627Z,12.90
2023-04-16T10:35:13.767Z,13.80
2023-04-16T10:36:13.820Z,13.40
2023-04-16T10:37:14.026Z,13.20
2023-04-16T10:38:13.179Z,12.50
2023-04-16T10:39:16.690Z,12.60
2023-04-16T10:40:13.074Z,12.70
2023-04-16T10:41:12.932Z,13.20
2023-04-16T10:42:12.813Z,13.10
2023-04-16T10:43:15.127Z,13.30
2023-04-16T10:44:13.136Z,12.70
2023-04-16T10:45:13.094Z,13.30
2023-04-16T10:46:19.338Z,12.50
2023-04-16T10:47:13.446Z,12.90
2023-04-16T10:48:13.500Z,14.00
2023-04-16T10:49:13.620Z,13.70
2023-04-16T10:50:13.662Z,14.20
2023-04-16T10:51:13.684Z,13.30
2023-04-16T10:52:13.662Z,13.80
2023-04-16T10:53:13.754Z,14.10
2023-04-16T10:54:13.767Z,13.40
2023-04-16T10:55:13.921Z,13.00
2023-04-16T10:56:16.146Z,13.40
2023-04-16T10:57:13.060Z,13.00
2023-04-16T10:58:13.898Z,13.50
2023-04-16T10:59:13.008Z,13.40
2023-04-16T11:00:13.042Z,13.10
2023-04-16T11:01:13.015Z,12.90
2023-04-16T11:02:13.295Z,13.30
2023-04-16T11:03:13.445Z,12.90
2023-04-16T11:04:13.635Z,12.90
2023-04-16T11:05:13.594Z,12.80
2023-04-16T11:06:13.602Z,13.10
2023-04-16T11:07:13.622Z,13.00
2023-04-16T11:08:13.943Z,12.90
2023-04-16T11:09:13.100Z,12.60
2023-04-16T11:10:13.177Z,12.80
2023-04-16T11:11:13.122Z,13.40
2023-04-16T11:12:13.560Z,13.00
2023-04-16T11:13:13.660Z,12.80
2023-04-16T11:14:18.643Z,13.10
2023-04-16T11:15:15.023Z,13.80
2023-04-16T11:16:13.120Z,14.10
2023-04-16T11:17:13.119Z,13.50
2023-04-16T11:18:14.536Z,13.60
2023-04-16T11:19:13.438Z,13.50
2023-04-16T11:20:19.018Z,13.30
2023-04-16T11:21:13.336Z,13.90
2023-04-16T11:22:13.196Z,14.20
2023-04-16T11:23:13.144Z,14.70
2023-04-16T11:24:13.285Z,14.40
2023-04-16T11:25:13.188Z,14.30
2023-04-16T11:26:18.545Z,13.70
2023-04-16T11:27:13.688Z,14.50
2023-04-16T11:28:13.547Z,13.70
2023-04-16T11:29:13.776Z,13.90
2023-04-16T11:30:13.754Z,13.90
2023-04-16T11:31:14.070Z,13.30
2023-04-16T11:32:12.939Z,13.50
2023-04-16T11:33:12.894Z,13.60
2023-04-16T11:34:12.843Z,13.60
2023-04-16T11:35:13.842Z,13.80
2023-04-16T11:36:13.739Z,13.70
2023-04-16T11:37:13.985Z,13.60
2023-04-16T11:38:13.000Z,13.30
2023-04-16T11:39:13.051Z,13.50
2023-04-16T11:40:12.998Z,14.20
2023-04-16T11:41:13.012Z,14.80
2023-04-16T11:42:13.007Z,14.70
2023-04-16T11:43:12.913Z,15.20
2023-04-16T11:44:13.447Z,15.10
2023-04-16T11:45:13.616Z,14.30
2023-04-16T11:46:24.565Z,13.70
2023-04-16T11:47:14.032Z,13.70
2023-04-16T11:48:13.012Z,13.60
2023-04-16T11:49:13.875Z,13.50
2023-04-16T11:50:13.505Z,13.70
2023-04-16T11:51:13.482Z,14.00
2023-04-16T11:52:13.769Z,15.20
2023-04-16T11:53:13.804Z,15.40
2023-04-16T11:54:14.099Z,14.80
2023-04-16T11:55:12.960Z,14.40
2023-04-16T11:56:13.168Z,14.60
2023-04-16T11:57:13.402Z,13.90
2023-04-16T11:58:13.457Z,14.40
2023-04-16T12:00:13.157Z,14.50
2023-04-16T12:01:13.476Z,14.10
2023-04-16T12:02:13.499Z,13.90
2023-04-16T12:03:13.890Z,13.90
2023-04-16T12:04:13.265Z,13.90
2023-04-16T12:05:13.397Z,14.70
2023-04-16T12:06:13.680Z,14.30
2023-04-16T12:07:13.739Z,14.00
2023-04-16T12:08:13.918Z,14.10
2023-04-16T12:09:12.893Z,14.40
2023-04-16T12:10:13.022Z,14.00
2023-04-16T12:11:12.930Z,14.50
2023-04-16T12:12:12.864Z,14.60
2023-04-16T12:13:13.820Z,14.70
2023-04-16T12:14:13.708Z,15.50
2023-04-16T12:15:13.820Z,15.60
2023-04-16T12:16:13.701Z,14.10
2023-04-16T12:17:13.884Z,14.00
2023-04-16T12:18:12.948Z,14.30
2023-04-16T12:19:13.026Z,14.30
2023-04-16T12:20:13.210Z,14.30
2023-04-16T12:21:13.054Z,14.40
2023-04-16T12:22:12.860Z,14.80
2023-04-16T12:23:13.910Z,14.90
2023-04-16T12:24:13.020Z,14.60
2023-04-16T12:25:14.182Z,14.40
2023-04-16T12:26:13.615Z,14.30
2023-04-16T12:27:13.617Z,14.00
2023-04-16T12:28:13.583Z,13.80
2023-04-16T12:29:13.484Z,14.20
2023-04-16T12:30:13.900Z,14.20
2023-04-16T12:31:13.246Z,15.00
2023-04-16T12:32:13.171Z,15.00
2023-04-16T12:33:13.134Z,14.70
2023-04-16T12:34:13.026Z,14.70
2023-04-16T12:35:13.065Z,14.80
2023-04-16T12:36:12.996Z,14.30
2023-04-16T12:37:12.906Z,14.40
2023-04-16T12:38:13.304Z,14.80
2023-04-16T12:39:14.600Z,14.40
2023-04-16T12:40:13.557Z,14.90
2023-04-16T12:41:14.851Z,15.00
2023-04-16T12:42:13.994Z,14.80
2023-04-16T12:43:12.882Z,15.10
2023-04-16T12:44:13.477Z,14.50
2023-04-16T12:45:13.464Z,14.90
2023-04-16T12:46:13.271Z,15.40
2023-04-16T12:47:13.412Z,15.40
2023-04-16T12:48:13.461Z,15.40
2023-04-16T12:49:13.753Z,15.30
2023-04-16T12:50:13.612Z,15.40
2023-04-16T12:51:13.520Z,14.90
2023-04-16T12:52:13.899Z,14.60
2023-04-16T12:53:12.784Z,14.40
2023-04-16T12:54:13.642Z,14.80
2023-04-16T12:55:13.782Z,15.40
2023-04-16T12:56:13.641Z,14.80
2023-04-16T12:57:13.621Z,15.00
2023-04-16T12:58:13.586Z,14.70
2023-04-16T12:59:13.442Z,14.70
2023-04-16T13:00:13.468Z,14.80
2023-04-16T13:01:13.444Z,14.80